createdAt,value
2019-04-16T00:02:30.782Z,11.75
2019-04-16T00:05:12.251Z,11.77
2019-04-16T00:07:48.276Z,12.18
2019-04-16T00:10:56.586Z,11.30
2019-04-16T00:13:33.426Z,11.43
2019-04-16T00:16:05.969Z,11.68
2019-04-16T00:18:36.804Z,10.20
2019-04-16T00:21:44.666Z,10.43
2019-04-16T00:24:30.751Z,11.28
2019-04-16T00:27:01.583Z,10.70
2019-04-16T00:29:32.973Z,14.05
2019-04-16T00:32:11.985Z,10.93
2019-04-16T00:34:44.761Z,13.80
2019-04-16T00:37:15.191Z,12.35
2019-04-16T00:39:45.927Z,15.00
2019-04-16T00:42:16.774Z,12.18
2019-04-16T00:44:47.659Z,13.17
2019-04-16T00:47:18.431Z,11.40
2019-04-16T00:49:49.244Z,10.77
2019-04-16T00:52:20.029Z,11.43
2019-04-16T00:54:50.908Z,11.88
2019-04-16T00:57:22.630Z,11.10
2019-04-16T00:59:56.131Z,9.95
2019-04-16T01:05:22.599Z,11.85
2019-04-16T01:07:53.387Z,10.60
2019-04-16T01:10:24.163Z,11.90
2019-04-16T01:12:56.736Z,12.20
2019-04-16T01:15:29.268Z,12.13
2019-04-16T01:18:00.251Z,11.40
2019-04-16T01:20:32.606Z,11.13
2019-04-16T01:23:03.448Z,11.85
2019-04-16T01:25:34.226Z,12.50
2019-04-16T01:28:07.144Z,12.70
2019-04-16T01:30:59.654Z,11.43
2019-04-16T01:33:43.412Z,11.57
2019-04-16T01:36:39.878Z,11.90
2019-04-16T01:39:17.620Z,10.70
2019-04-16T01:41:43.243Z,11.43
2019-04-16T01:44:14.969Z,11.80
2019-04-16T01:46:45.774Z,11.90
2019-04-16T01:49:17.614Z,10.30
2019-04-16T01:51:48.421Z,10.50
2019-04-16T01:54:22.577Z,9.30
2019-04-16T01:56:51.804Z,9.80
2019-04-16T01:59:22.947Z,10.83
2019-04-16T02:01:53.870Z,11.27
2019-04-16T02:04:24.663Z,11.37
2019-04-16T02:06:57.286Z,12.00
2019-04-16T02:09:27.887Z,9.57
2019-04-16T02:11:58.675Z,13.37
2019-04-16T02:14:29.432Z,12.63
2019-04-16T02:17:00.183Z,13.87
2019-04-16T02:19:32.825Z,11.75
2019-04-16T02:22:04.381Z,11.40
2019-04-16T02:24:35.185Z,13.13
2019-04-16T02:27:05.933Z,13.10
2019-04-16T02:29:36.687Z,13.28
2019-04-16T02:32:07.561Z,10.95
2019-04-16T02:34:38.335Z,11.48
2019-04-16T02:37:09.195Z,12.50
2019-04-16T02:39:49.048Z,11.38
2019-04-16T02:42:12.485Z,12.63
2019-04-16T02:44:48.847Z,12.82
2019-04-16T02:47:15.823Z,10.98
2019-04-16T02:49:46.592Z,11.33
2019-04-16T02:52:23.589Z,12.50
2019-04-16T02:55:19.440Z,12.05
2019-04-16T02:58:01.233Z,10.88
2019-04-16T03:00:50.785Z,11.67
2019-04-16T03:03:28.175Z,10.53
2019-04-16T03:06:01.020Z,11.65
2019-04-16T03:08:33.359Z,10.53
2019-04-16T03:11:04.782Z,13.40
2019-04-16T03:13:35.556Z,12.28
2019-04-16T03:16:43.442Z,11.85
2019-04-16T03:19:20.118Z,11.18
2019-04-16T03:21:50.087Z,10.82
2019-04-16T03:24:20.906Z,10.58
2019-04-16T03:26:51.685Z,10.43
2019-04-16T03:29:22.805Z,11.63
2019-04-16T03:31:58.208Z,11.35
2019-04-16T03:34:26.249Z,12.15
2019-04-16T03:36:58.597Z,11.37
2019-04-16T03:39:29.523Z,11.67
2019-04-16T03:42:00.295Z,10.07
2019-04-16T03:44:37.335Z,10.90
2019-04-16T03:47:08.081Z,10.20
2019-04-16T03:49:39.807Z,10.35
2019-04-16T03:52:11.876Z,13.05
2019-04-16T03:54:42.673Z,11.33
2019-04-16T03:57:13.543Z,12.05
2019-04-16T03:59:44.285Z,10.35
2019-04-16T04:02:18.937Z,9.83
2019-04-16T04:04:47.674Z,10.60
2019-04-16T04:07:19.472Z,10.13
2019-04-16T04:09:51.506Z,11.73
2019-04-16T04:12:22.834Z,12.00
2019-04-16T04:14:54.411Z,9.70
2019-04-16T04:17:25.915Z,10.43
2019-04-16T04:19:57.224Z,9.93
2019-04-16T04:22:27.967Z,10.48
2019-04-16T04:25:00.534Z,11.93
2019-04-16T04:27:31.201Z,11.55
2019-04-16T04:30:01.969Z,11.15
2019-04-16T04:32:35.464Z,11.25
2019-04-16T04:35:05.453Z,11.53
2019-04-16T04:37:37.186Z,9.98
2019-04-16T04:40:08.067Z,10.48
2019-04-16T04:42:38.918Z,9.90
2019-04-16T04:45:10.578Z,9.50
2019-04-16T04:47:41.442Z,11.13
2019-04-16T04:50:12.452Z,10.97
2019-04-16T04:52:45.822Z,10.00
2019-04-16T04:55:15.700Z,10.95
2019-04-16T04:57:46.566Z,9.93
2019-04-16T05:00:17.650Z,9.80
2019-04-16T05:02:49.275Z,10.70
2019-04-16T05:05:25.907Z,10.60
2019-04-16T05:07:59.690Z,9.88
2019-04-16T05:10:29.182Z,9.17
2019-04-16T05:12:59.953Z,8.90
2019-04-16T05:15:30.731Z,9.20
2019-04-16T05:18:01.581Z,10.28
2019-04-16T05:20:32.794Z,9.78
2019-04-16T05:23:03.585Z,10.73
2019-04-16T05:25:34.546Z,10.90
2019-04-16T05:28:05.358Z,11.20
2019-04-16T05:30:36.171Z,11.87
2019-04-16T05:33:06.946Z,14.50
2019-04-16T05:35:38.536Z,14.75
2019-04-16T05:38:10.243Z,13.20
2019-04-16T05:40:41.145Z,10.20
2019-04-16T05:43:12.009Z,10.88
2019-04-16T05:45:43.078Z,11.38
2019-04-16T05:48:13.883Z,10.32
2019-04-16T05:50:44.676Z,11.88
2019-04-16T05:53:15.471Z,13.45
2019-04-16T05:56:08.374Z,12.43
2019-04-16T05:58:39.155Z,10.18
2019-04-16T06:01:25.244Z,11.30
2019-04-16T06:03:57.337Z,10.95
2019-04-16T06:06:28.538Z,9.77
2019-04-16T06:09:00.864Z,9.35
2019-04-16T06:11:36.474Z,8.87
2019-04-16T06:14:19.171Z,11.23
2019-04-16T06:17:09.382Z,10.23
2019-04-16T06:20:00.884Z,9.33
2019-04-16T06:23:00.635Z,8.83
2019-04-16T06:25:33.271Z,7.60
2019-04-16T06:28:23.072Z,8.50
2019-04-16T06:31:10.161Z,10.53
2019-04-16T06:33:48.448Z,7.37
2019-04-16T06:36:37.197Z,8.90
2019-04-16T06:39:30.667Z,9.73
2019-04-16T06:42:26.421Z,8.60
2019-04-16T06:45:01.640Z,11.50
2019-04-16T06:47:56.212Z,9.83
2019-04-16T06:50:48.925Z,9.17
2019-04-16T06:53:31.638Z,10.23
2019-04-16T06:56:32.851Z,7.87
2019-04-16T06:59:12.450Z,12.83
2019-04-16T07:02:01.852Z,8.30
2019-04-16T07:04:41.341Z,11.03
2019-04-16T07:07:39.635Z,9.60
2019-04-16T07:10:11.389Z,8.60
2019-04-16T07:12:42.506Z,8.70
2019-04-16T07:15:13.596Z,10.10
2019-04-16T07:17:44.350Z,10.27
2019-04-16T07:20:15.303Z,8.93
2019-04-16T07:22:46.355Z,7.97
2019-04-16T07:25:17.580Z,8.63
2019-04-16T07:28:10.686Z,10.80
2019-04-16T07:30:45.881Z,11.47
2019-04-16T07:33:42.846Z,10.27
2019-04-16T07:36:29.715Z,11.85
2019-04-16T07:39:36.846Z,10.45
2019-04-16T07:42:22.302Z,8.90
2019-04-16T07:45:21.487Z,8.43
2019-04-16T07:48:09.434Z,10.25
2019-04-16T07:50:57.885Z,9.23
2019-04-16T07:53:47.165Z,10.90
2019-04-16T07:56:19.126Z,10.43
2019-04-16T07:58:50.877Z,13.90
2019-04-16T08:01:21.923Z,10.53
2019-04-16T08:03:52.767Z,8.57
2019-04-16T08:06:24.495Z,10.20
2019-04-16T08:08:57.415Z,9.27
2019-04-16T08:11:27.892Z,10.33
2019-04-16T08:13:58.684Z,9.30
2019-04-16T08:16:29.577Z,8.87
2019-04-16T08:19:00.357Z,10.23
2019-04-16T08:21:31.228Z,9.00
2019-04-16T08:24:10.420Z,10.60
2019-04-16T08:26:41.571Z,10.07
2019-04-16T08:29:13.700Z,8.77
2019-04-16T08:31:46.491Z,9.40
2019-04-16T08:34:17.862Z,10.47
2019-04-16T08:36:48.633Z,10.47
2019-04-16T08:39:19.452Z,10.97
2019-04-16T08:41:52.357Z,10.03
2019-04-16T08:44:22.746Z,9.20
2019-04-16T08:46:53.676Z,10.43
2019-04-16T08:49:24.524Z,7.53
2019-04-16T08:51:55.415Z,10.20
2019-04-16T08:54:26.190Z,10.03
2019-04-16T08:56:56.988Z,12.47
2019-04-16T08:59:27.822Z,10.50
2019-04-16T09:01:59.066Z,11.13
2019-04-16T09:04:34.113Z,11.45
2019-04-16T09:07:11.111Z,10.93
2019-04-16T09:09:44.978Z,12.37
2019-04-16T09:12:15.772Z,12.87
2019-04-16T09:14:48.762Z,10.70
2019-04-16T09:17:28.906Z,10.53
2019-04-16T09:20:05.652Z,9.83
2019-04-16T09:22:48.186Z,9.60
2019-04-16T09:25:45.850Z,10.03
2019-04-16T09:28:25.673Z,10.87
2019-04-16T09:31:11.297Z,10.83
2019-04-16T09:33:57.194Z,11.40
2019-04-16T09:36:39.922Z,13.37
2019-04-16T09:39:26.954Z,12.50
2019-04-16T09:41:57.927Z,10.70
2019-04-16T09:44:31.051Z,11.90
2019-04-16T09:47:01.254Z,10.27
2019-04-16T09:49:34.352Z,12.67
2019-04-16T09:52:04.630Z,9.23
2019-04-16T09:54:35.453Z,11.20
2019-04-16T09:57:06.355Z,12.85
2019-04-16T09:59:50.892Z,12.23
2019-04-16T10:02:24.958Z,13.28
2019-04-16T10:04:55.895Z,13.20
2019-04-16T10:07:27.569Z,12.47
2019-04-16T10:09:58.666Z,14.80
2019-04-16T10:12:29.540Z,12.70
2019-04-16T10:15:01.305Z,14.20
2019-04-16T10:17:32.244Z,13.08
2019-04-16T10:20:03.050Z,12.20
2019-04-16T10:22:33.920Z,13.32
2019-04-16T10:25:15.187Z,12.53
2019-04-16T10:27:52.086Z,11.57
2019-04-16T10:43:45.191Z,12.20
2019-04-16T10:46:38.212Z,14.80
2019-04-16T10:49:23.592Z,13.88
2019-04-16T10:52:11.979Z,14.50
2019-04-16T10:55:01.796Z,12.27
2019-04-16T10:57:58.387Z,13.07
2019-04-16T11:00:50.980Z,16.97
2019-04-16T11:03:28.545Z,13.57
2019-04-16T11:06:06.267Z,12.13
2019-04-16T11:08:37.247Z,13.43
2019-04-16T11:11:08.426Z,17.63
2019-04-16T11:13:58.304Z,15.30
2019-04-16T11:16:18.329Z,17.20
2019-04-16T11:18:49.187Z,15.80
2019-04-16T11:21:20.116Z,15.47
2019-04-16T11:23:51.961Z,14.68
2019-04-16T11:26:22.826Z,16.17
2019-04-16T11:28:53.714Z,13.80
2019-04-16T11:31:25.785Z,13.43
2019-04-16T11:33:57.646Z,14.07
2019-04-16T11:36:30.968Z,16.23
2019-04-16T11:39:01.105Z,14.53
2019-04-16T11:41:33.556Z,13.20
2019-04-16T11:44:15.209Z,14.53
2019-04-16T11:46:37.105Z,16.10
2019-04-16T11:49:07.956Z,17.57
2019-04-16T11:51:38.875Z,12.83
2019-04-16T11:54:11.923Z,13.23
2019-04-16T11:56:44.061Z,15.20
2019-04-16T11:59:15.194Z,16.27
2019-04-16T12:01:54.024Z,12.83
2019-04-16T12:04:43.877Z,16.87
2019-04-16T12:07:42.519Z,15.23
2019-04-16T12:10:39.518Z,16.30
2019-04-16T12:13:27.804Z,16.00
2019-04-16T12:16:35.706Z,16.40
2019-04-16T12:19:24.239Z,14.67
2019-04-16T12:22:22.808Z,14.80
2019-04-16T12:25:26.567Z,16.53
2019-04-16T12:28:12.293Z,14.17
2019-04-16T12:30:58.499Z,14.23
2019-04-16T12:33:42.400Z,14.73
2019-04-16T12:36:28.953Z,14.97
2019-04-16T12:39:07.838Z,14.83
2019-04-16T12:42:00.049Z,15.77
2019-04-16T12:44:54.400Z,13.90
2019-04-16T12:47:49.906Z,15.43
2019-04-16T12:50:27.853Z,15.30
2019-04-16T12:53:19.857Z,15.63
2019-04-16T12:56:21.850Z,15.73
2019-04-16T12:59:02.213Z,18.23
2019-04-16T13:01:44.412Z,15.47
2019-04-16T13:04:22.427Z,15.27
2019-04-16T13:06:59.735Z,18.00
2019-04-16T13:09:48.083Z,16.25
2019-04-16T13:12:33.983Z,20.02
2019-04-16T13:18:27.686Z,16.77
2019-04-16T13:21:06.602Z,15.40
2019-04-16T13:23:46.489Z,13.53
2019-04-16T13:26:23.003Z,15.00
2019-04-16T13:28:55.599Z,16.27
2019-04-16T13:31:26.659Z,15.83
2019-04-16T13:33:57.619Z,17.23
2019-04-16T13:36:28.435Z,18.60
2019-04-16T13:39:05.817Z,16.47
2019-04-16T13:41:36.895Z,16.03
2019-04-16T13:44:09.945Z,13.63
2019-04-16T13:46:40.874Z,14.43
2019-04-16T13:49:16.379Z,16.57
2019-04-16T13:51:47.840Z,17.80
2019-04-16T13:54:41.194Z,17.37
2019-04-16T13:57:15.481Z,14.40
2019-04-16T14:00:02.969Z,17.80
2019-04-16T14:03:02.428Z,16.53
2019-04-16T14:05:37.490Z,15.30
2019-04-16T14:08:06.106Z,18.10
2019-04-16T14:10:36.999Z,16.77
2019-04-16T14:13:12.083Z,14.40
2019-04-16T14:15:40.708Z,15.97
2019-04-16T14:18:11.627Z,17.97
2019-04-16T14:20:42.763Z,15.90
2019-04-16T14:23:14.650Z,17.50
2019-04-16T14:25:45.523Z,17.03
2019-04-16T14:28:18.137Z,17.73
2019-04-16T14:30:50.277Z,15.53
2019-04-16T14:33:45.135Z,16.50
2019-04-16T14:36:16.981Z,16.60
2019-04-16T14:38:52.125Z,18.57
2019-04-16T14:41:23.071Z,20.07
2019-04-16T14:44:02.507Z,18.93
2019-04-16T14:46:31.816Z,18.63
2019-04-16T14:49:02.714Z,18.30
2019-04-16T14:51:33.584Z,17.57
2019-04-16T14:54:12.361Z,19.13
2019-04-16T14:56:46.470Z,18.50
2019-04-16T14:59:42.095Z,18.50
2019-04-16T15:02:46.765Z,19.43
2019-04-16T15:05:29.405Z,19.30
2019-04-16T15:08:34.199Z,16.83
2019-04-16T15:11:18.587Z,16.87
2019-04-16T15:14:02.506Z,17.13
2019-04-16T15:16:43.864Z,16.97
2019-04-16T15:19:33.654Z,17.63
2019-04-16T15:50:46.047Z,19.20
2019-04-16T15:53:36.087Z,18.67
2019-04-16T15:56:11.615Z,20.77
2019-04-16T15:58:57.513Z,19.50
2019-04-16T16:01:51.849Z,18.03
2019-04-16T16:04:35.490Z,18.00
2019-04-16T16:07:11.878Z,21.85
2019-04-16T16:10:00.128Z,21.07
2019-04-16T16:12:32.355Z,18.73
2019-04-16T16:15:07.644Z,19.37
2019-04-16T16:17:36.381Z,16.90
2019-04-16T16:20:10.297Z,16.27
2019-04-16T16:22:44.367Z,17.33
2019-04-16T16:25:15.370Z,17.37
2019-04-16T16:27:47.145Z,19.47
2019-04-16T16:30:18.216Z,14.83
2019-04-16T16:32:49.168Z,16.07
2019-04-16T16:35:20.015Z,18.20
2019-04-16T16:37:50.835Z,21.17
2019-04-16T16:40:21.775Z,20.67
2019-04-16T16:42:52.814Z,17.63
2019-04-16T16:45:31.199Z,20.60
2019-04-16T16:48:02.086Z,26.23
2019-04-16T16:50:33.052Z,23.47
2019-04-16T16:53:13.558Z,22.67
2019-04-16T16:55:48.577Z,101.30
2019-04-16T17:01:26.260Z,18.40
2019-04-16T17:04:00.322Z,20.87
2019-04-16T17:06:31.327Z,18.40
2019-04-16T17:09:06.561Z,16.97
2019-04-16T17:11:43.280Z,18.40
2019-04-16T17:14:13.151Z,18.07
2019-04-16T17:16:44.010Z,17.27
2019-04-16T17:19:15.833Z,16.87
2019-04-16T17:21:46.667Z,16.23
2019-04-16T17:24:17.915Z,18.07
2019-04-16T17:26:50.077Z,17.57
2019-04-16T17:29:21.609Z,16.90
2019-04-16T17:31:53.582Z,15.88
2019-04-16T17:34:24.486Z,17.17
2019-04-16T17:36:59.887Z,18.75
2019-04-16T17:39:52.634Z,15.70
2019-04-16T17:42:31.070Z,16.17
2019-04-16T17:45:24.014Z,17.67
2019-04-16T17:48:13.515Z,16.87
2019-04-16T17:51:09.436Z,17.83
2019-04-16T17:54:06.305Z,17.92
2019-04-16T17:56:56.457Z,19.40
2019-04-16T17:59:33.571Z,18.48
2019-04-16T18:02:25.011Z,15.95
2019-04-16T18:05:07.578Z,16.07
2019-04-16T18:07:57.658Z,18.57
2019-04-16T18:10:59.496Z,17.17
2019-04-16T18:13:35.425Z,17.85
2019-04-16T18:16:30.163Z,15.63
2019-04-16T18:19:13.122Z,16.10
2019-04-16T18:21:54.074Z,17.47
2019-04-16T18:24:43.950Z,16.50
2019-04-16T18:27:34.126Z,18.92
2019-04-16T18:30:24.677Z,20.17
2019-04-16T18:33:14.966Z,16.97
2019-04-16T18:35:55.276Z,17.63
2019-04-16T18:38:42.749Z,17.23
2019-04-16T18:41:28.337Z,18.35
2019-04-16T18:44:18.784Z,15.93
2019-04-16T18:47:11.440Z,20.68
2019-04-16T18:49:42.807Z,18.75
2019-04-16T18:52:13.744Z,18.27
2019-04-16T18:54:46.064Z,17.02
2019-04-16T19:02:16.541Z,11.20
2019-04-16T19:04:50.808Z,11.43
2019-04-16T19:07:20.039Z,9.08
2019-04-16T19:09:51.028Z,9.98
2019-04-16T19:12:21.964Z,11.12
2019-04-16T19:14:53.051Z,8.83
2019-04-16T19:17:23.888Z,8.08
2019-04-16T19:19:54.842Z,7.13
2019-04-16T19:22:26.071Z,6.83
2019-04-16T19:25:00.524Z,7.23
2019-04-16T19:27:31.891Z,6.75
2019-04-16T19:30:03.796Z,6.93
2019-04-16T19:32:36.787Z,9.33
2019-04-16T19:35:11.021Z,7.55
2019-04-16T19:37:40.503Z,8.28
2019-04-16T19:40:15.594Z,4.90
2019-04-16T19:42:44.969Z,4.95
2019-04-16T19:45:16.445Z,6.33
2019-04-16T19:47:49.571Z,6.97
2019-04-16T19:50:22.362Z,5.07
2019-04-16T19:52:53.704Z,7.65
2019-04-16T19:55:25.488Z,6.23
2019-04-16T19:58:02.306Z,6.08
2019-04-16T20:00:35.399Z,8.30
2019-04-16T20:03:06.635Z,5.03
2019-04-16T20:05:40.215Z,5.78
2019-04-16T20:08:11.568Z,4.65
2019-04-16T20:10:42.517Z,3.50
2019-04-16T20:13:13.370Z,3.37
2019-04-16T20:15:44.277Z,3.52
2019-04-16T20:18:16.235Z,2.95
2019-04-16T20:20:53.224Z,3.52
2019-04-16T20:23:27.584Z,3.90
2019-04-16T20:26:00.377Z,3.30
2019-04-16T20:28:31.158Z,4.10
2019-04-16T20:31:04.290Z,3.93
2019-04-16T20:33:35.011Z,2.80
2019-04-16T20:36:06.501Z,4.27
2019-04-16T20:38:37.654Z,4.30
2019-04-16T20:41:11.241Z,3.23
2019-04-16T20:43:42.227Z,2.93
2019-04-16T20:46:13.110Z,3.47
2019-04-16T20:48:45.034Z,4.30
2019-04-16T20:51:16.643Z,3.50
2019-04-16T20:53:48.798Z,2.92
2019-04-16T20:56:20.495Z,4.63
2019-04-16T20:58:53.928Z,3.93
2019-04-16T21:01:33.787Z,4.57
2019-04-16T21:04:04.992Z,4.10
2019-04-16T21:06:30.403Z,3.70
2019-04-16T21:09:01.323Z,4.10
2019-04-16T21:11:33.904Z,4.30
2019-04-16T21:14:04.828Z,3.17
2019-04-16T21:16:35.747Z,4.20
2019-04-16T21:19:21.690Z,3.40
2019-04-16T21:21:39.970Z,7.10
2019-04-16T21:24:13.557Z,3.67
2019-04-16T21:26:43.306Z,3.85
2019-04-16T21:29:34.348Z,3.65
2019-04-16T21:32:10.320Z,5.50
2019-04-16T21:34:46.159Z,4.80
2019-04-16T21:37:47.902Z,5.37
2019-04-16T21:40:23.178Z,4.53
2019-04-16T21:42:51.239Z,9.70
2019-04-16T21:45:22.043Z,3.65
2019-04-16T21:47:55.005Z,5.20
2019-04-16T21:50:25.434Z,4.40
2019-04-16T21:52:56.690Z,5.05
2019-04-16T21:55:27.609Z,4.22
2019-04-16T21:57:58.524Z,4.37
2019-04-16T22:00:46.704Z,4.43
2019-04-16T22:03:20.547Z,6.42
2019-04-16T22:05:51.430Z,5.70
2019-04-16T22:08:22.246Z,5.05
2019-04-16T22:10:53.037Z,3.93
2019-04-16T22:13:23.939Z,6.07
2019-04-16T22:15:57.250Z,5.60
2019-04-16T22:18:27.331Z,5.13
2019-04-16T22:20:58.185Z,5.07
2019-04-16T22:23:28.999Z,3.80
2019-04-16T22:26:01.379Z,6.10
2019-04-16T22:28:32.259Z,6.30
2019-04-16T22:31:03.041Z,5.00
2019-04-16T22:33:33.822Z,5.80
2019-04-16T22:36:05.661Z,6.07
2019-04-16T22:38:37.344Z,4.93
2019-04-16T22:41:19.823Z,4.83
2019-04-16T22:44:00.346Z,5.17
2019-04-16T22:46:37.563Z,7.23
2019-04-16T22:49:08.357Z,7.40
2019-04-16T22:51:43.186Z,5.17
2019-04-16T22:54:12.699Z,6.73
2019-04-16T22:57:11.260Z,4.27
2019-04-16T22:59:42.054Z,6.57
2019-04-16T23:02:21.210Z,6.37
2019-04-16T23:04:54.909Z,8.20
2019-04-16T23:07:24.499Z,5.03
2019-04-16T23:09:55.289Z,5.20
2019-04-16T23:12:28.165Z,6.13
2019-04-16T23:14:58.623Z,6.83
2019-04-16T23:17:29.410Z,6.67
2019-04-16T23:20:00.270Z,5.47
2019-04-16T23:22:31.027Z,9.43
2019-04-16T23:25:01.821Z,5.13
2019-04-16T23:27:37.221Z,4.67
2019-04-16T23:30:05.454Z,5.53
2019-04-16T23:32:36.291Z,5.10
2019-04-16T23:35:10.774Z,5.42
2019-04-16T23:37:40.172Z,4.63
2019-04-16T23:40:12.133Z,6.83
2019-04-16T23:42:54.778Z,5.90
2019-04-16T23:45:44.490Z,6.10
2019-04-16T23:48:23.072Z,7.37
2019-04-16T23:51:01.792Z,8.47
2019-04-16T23:53:54.546Z,8.83
2019-04-16T23:56:38.403Z,10.27
2019-04-16T23:59:22.563Z,8.40
